Current Weather

Chicago O'Hare International

Chicago, Illinois (KORD)

Report from: Thursday, August 18, 2022 10:51 PM CDT
Current time: Thursday, August 18, 2022 11:09 PM CDT

Nearby weather
Weather history
Weather forecast

Temperature22.8°C (73.0°F)
Dew point15.6°C (60.1°F)
Winds 5 kts (2.6 m/s, 5.8 mph) South (180°)
Visibility10 mi. (16.1 km)
Clouds Few clouds 6,000 ft. (1,829 m)
Few clouds 25,000 ft. (7,620 m)
Altimeter29.94 in.Hg (1014 mB)
Relative humidity64 %
Density altitude1,131 ft. (345 m)
Sea-level pressure101.3 kPa (1013 mB, 29.92 in.Hg)
Remarks Automated weather observing station with precipitation discriminator
Flight conditions Visual Meteorological Conditions
Raw dataKORD 190351Z 18005KT 10SM FEW060 FEW250 23/16 A2994 RMK AO2 SLP132 T02280156
An unhandled exception has occurred. See browser dev tools for details. Reload 🗙